createdAt,value
2022-10-25T00:00:58.284Z,100.00
2022-10-25T00:03:26.851Z,100.00
2022-10-25T00:05:55.121Z,100.00
2022-10-25T00:08:23.340Z,100.00
2022-10-25T00:10:53.074Z,100.00
2022-10-25T00:13:21.303Z,100.00
2022-10-25T00:15:49.566Z,100.00
2022-10-25T00:18:17.861Z,100.00
2022-10-25T00:20:46.834Z,100.00
2022-10-25T00:23:15.179Z,100.00
2022-10-25T00:25:44.631Z,100.00
2022-10-25T00:28:14.304Z,100.00
2022-10-25T00:30:42.530Z,100.00
2022-10-25T00:33:10.771Z,100.00
2022-10-25T00:35:39.003Z,100.00
2022-10-25T00:38:07.314Z,100.00
2022-10-25T00:40:35.560Z,100.00
2022-10-25T00:43:03.846Z,100.00
2022-10-25T00:45:33.910Z,100.00
2022-10-25T00:48:05.758Z,100.00
2022-10-25T00:50:42.511Z,100.00
2022-10-25T00:53:18.477Z,100.00
2022-10-25T00:55:49.807Z,100.00
2022-10-25T00:58:20.755Z,100.00
2022-10-25T01:00:50.570Z,100.00
2022-10-25T01:03:20.692Z,100.00
2022-10-25T01:05:49.594Z,100.00
2022-10-25T01:08:18.984Z,100.00
2022-10-25T01:10:47.569Z,100.00
2022-10-25T01:13:15.823Z,100.00
2022-10-25T01:15:56.180Z,100.00
2022-10-25T01:18:31.442Z,100.00
2022-10-25T01:21:25.298Z,100.00
2022-10-25T01:24:09.832Z,100.00
2022-10-25T01:27:06.014Z,100.00
2022-10-25T01:30:00.486Z,100.00
2022-10-25T01:32:34.158Z,100.00
2022-10-25T01:35:08.246Z,100.00
2022-10-25T01:37:43.468Z,100.00
2022-10-25T01:40:18.689Z,100.00
2022-10-25T01:42:52.801Z,100.00
2022-10-25T01:45:23.069Z,100.00
2022-10-25T01:47:56.396Z,100.00
2022-10-25T01:50:27.867Z,100.00
2022-10-25T01:52:56.416Z,100.00
2022-10-25T01:55:28.486Z,100.00
2022-10-25T01:58:02.022Z,100.00
2022-10-25T02:00:32.550Z,100.00
2022-10-25T02:03:09.758Z,100.00
2022-10-25T02:05:50.456Z,100.00
2022-10-25T02:08:29.046Z,100.00
2022-10-25T02:11:03.102Z,100.00
2022-10-25T02:13:34.344Z,100.00
2022-10-25T02:16:05.464Z,100.00
2022-10-25T02:18:38.378Z,100.00
2022-10-25T02:21:07.430Z,100.00
2022-10-25T02:23:36.644Z,100.00
2022-10-25T02:26:06.693Z,100.00
2022-10-25T02:28:37.320Z,100.00
2022-10-25T02:31:05.543Z,100.00
2022-10-25T02:33:33.679Z,100.00
2022-10-25T02:36:14.329Z,100.00
2022-10-25T02:38:42.430Z,100.00
2022-10-25T02:41:10.695Z,100.00
2022-10-25T02:43:39.006Z,100.00
2022-10-25T02:46:09.785Z,100.00
2022-10-25T02:48:38.791Z,100.00
2022-10-25T02:51:07.501Z,100.00
2022-10-25T02:53:37.315Z,100.00
2022-10-25T02:56:07.375Z,100.00
2022-10-25T02:58:37.236Z,100.00
2022-10-25T03:01:06.874Z,100.00
2022-10-25T03:03:35.655Z,100.00
2022-10-25T03:06:04.659Z,100.00
2022-10-25T03:08:33.233Z,100.00
2022-10-25T03:11:02.976Z,100.00
2022-10-25T03:13:31.190Z,100.00
2022-10-25T03:15:59.686Z,100.00
2022-10-25T03:18:28.320Z,100.00
2022-10-25T03:20:58.101Z,100.00
2022-10-25T03:23:26.556Z,100.00
2022-10-25T03:25:54.897Z,100.00
2022-10-25T03:28:24.681Z,100.00
2022-10-25T03:30:52.841Z,100.00
2022-10-25T03:33:21.061Z,100.00
2022-10-25T03:35:51.811Z,100.00
2022-10-25T03:38:20.276Z,100.00
2022-10-25T03:40:48.602Z,100.00
2022-10-25T03:43:16.876Z,100.00
2022-10-25T03:45:46.638Z,100.00
2022-10-25T03:48:14.839Z,100.00
2022-10-25T03:50:43.114Z,100.00
2022-10-25T03:53:12.551Z,100.00
2022-10-25T03:55:40.798Z,100.00
2022-10-25T03:58:08.955Z,100.00
2022-10-25T04:00:37.290Z,100.00
2022-10-25T04:05:40.161Z,100.00
2022-10-25T04:08:08.421Z,100.00
2022-10-25T04:10:36.779Z,100.00
2022-10-25T04:13:05.002Z,100.00
2022-10-25T04:15:33.284Z,100.00
2022-10-25T04:18:01.471Z,100.00
2022-10-25T04:20:31.065Z,100.00
2022-10-25T04:22:59.486Z,100.00
2022-10-25T04:25:29.231Z,100.00
2022-10-25T04:27:59.566Z,100.00
2022-10-25T04:30:27.954Z,100.00
2022-10-25T04:32:57.980Z,100.00
2022-10-25T04:35:26.289Z,100.00
2022-10-25T04:37:58.531Z,100.00
2022-10-25T04:40:27.231Z,100.00
2022-10-25T04:42:55.468Z,100.00
2022-10-25T04:45:24.606Z,100.00
2022-10-25T04:47:52.769Z,100.00
2022-10-25T04:50:20.954Z,100.00
2022-10-25T04:52:49.383Z,100.00
2022-10-25T04:55:19.482Z,100.00
2022-10-25T04:57:47.709Z,100.00
2022-10-25T05:00:16.115Z,100.00
2022-10-25T05:02:44.403Z,100.00
2022-10-25T05:05:12.971Z,100.00
2022-10-25T05:07:41.155Z,100.00
2022-10-25T05:10:10.041Z,100.00
2022-10-25T05:12:39.977Z,100.00
2022-10-25T05:15:09.663Z,100.00
2022-10-25T05:17:38.165Z,100.00
2022-10-25T05:20:07.573Z,100.00
2022-10-25T05:22:35.757Z,100.00
2022-10-25T05:25:03.961Z,100.00
2022-10-25T05:27:32.164Z,100.00
2022-10-25T05:30:01.766Z,100.00
2022-10-25T05:32:31.302Z,100.00
2022-10-25T05:34:59.469Z,100.00
2022-10-25T05:37:27.649Z,100.00
2022-10-25T05:39:55.793Z,100.00
2022-10-25T05:42:24.100Z,100.00
2022-10-25T05:44:52.393Z,100.00
2022-10-25T05:47:21.949Z,100.00
2022-10-25T05:49:50.195Z,100.00
2022-10-25T05:52:18.365Z,100.00
2022-10-25T05:54:46.531Z,100.00
2022-10-25T05:57:14.783Z,100.00
2022-10-25T05:59:43.107Z,100.00
2022-10-25T06:02:12.158Z,100.00
2022-10-25T06:04:41.955Z,100.00
2022-10-25T06:07:10.213Z,100.00
2022-10-25T06:09:38.440Z,100.00
2022-10-25T06:12:09.493Z,100.00
2022-10-25T06:14:37.940Z,100.00
2022-10-25T06:17:06.165Z,100.00
2022-10-25T06:19:34.465Z,100.00
2022-10-25T06:22:04.149Z,100.00
2022-10-25T06:24:32.446Z,100.00
2022-10-25T06:27:00.714Z,100.00
2022-10-25T06:29:29.160Z,100.00
2022-10-25T06:31:57.509Z,100.00
2022-10-25T06:34:25.746Z,100.00
2022-10-25T06:36:54.023Z,100.00
2022-10-25T06:39:23.699Z,100.00
2022-10-25T06:41:51.954Z,100.00
2022-10-25T06:44:20.264Z,100.00
2022-10-25T06:47:18.434Z,100.00
2022-10-25T06:49:36.620Z,100.00
2022-10-25T06:52:04.891Z,100.00
2022-10-25T06:54:34.476Z,100.00
2022-10-25T06:57:02.673Z,100.00
2022-10-25T06:59:30.892Z,100.00
2022-10-25T07:01:59.208Z,100.00
2022-10-25T07:04:27.547Z,100.00
2022-10-25T07:06:55.734Z,100.00
2022-10-25T07:09:23.973Z,100.00
2022-10-25T07:11:53.507Z,100.00
2022-10-25T07:14:22.167Z,100.00
2022-10-25T07:16:50.509Z,100.00
2022-10-25T07:19:18.713Z,100.00
2022-10-25T07:21:46.940Z,100.00
2022-10-25T07:24:15.112Z,100.00
2022-10-25T07:26:43.437Z,100.00
2022-10-25T07:29:13.058Z,100.00
2022-10-25T07:31:43.184Z,100.00
2022-10-25T07:34:13.794Z,100.00
2022-10-25T07:36:41.829Z,100.00
2022-10-25T07:39:10.474Z,100.00
2022-10-25T07:41:38.795Z,100.00
2022-10-25T07:44:09.625Z,100.00
2022-10-25T07:46:42.788Z,100.00
2022-10-25T07:49:11.109Z,100.00
2022-10-25T07:51:39.378Z,100.00
2022-10-25T07:54:07.927Z,100.00
2022-10-25T07:56:36.214Z,100.00
2022-10-25T07:59:04.496Z,100.00
2022-10-25T08:01:32.765Z,100.00
2022-10-25T08:04:02.379Z,100.00
2022-10-25T08:06:30.596Z,100.00
2022-10-25T08:09:05.399Z,100.00
2022-10-25T08:11:43.398Z,100.00
2022-10-25T08:14:11.694Z,100.00
2022-10-25T08:16:39.987Z,100.00
2022-10-25T08:19:09.661Z,100.00
2022-10-25T08:21:37.962Z,100.00
2022-10-25T08:24:07.146Z,100.00
2022-10-25T08:26:37.014Z,100.00
2022-10-25T08:29:05.487Z,100.00
2022-10-25T08:31:33.760Z,100.00
2022-10-25T08:34:01.997Z,100.00
2022-10-25T08:36:31.607Z,100.00
2022-10-25T08:38:59.815Z,100.00
2022-10-25T08:41:34.302Z,100.00
2022-10-25T08:44:13.196Z,100.00
2022-10-25T08:46:44.761Z,100.00
2022-10-25T08:49:21.178Z,100.00
2022-10-25T08:51:51.645Z,100.00
2022-10-25T08:54:22.455Z,100.00
2022-10-25T08:57:10.711Z,100.00
2022-10-25T08:59:44.576Z,100.00
2022-10-25T09:02:18.962Z,100.00
2022-10-25T09:04:47.344Z,100.00
2022-10-25T09:07:37.391Z,100.00
2022-10-25T09:10:19.217Z,100.00
2022-10-25T09:12:56.482Z,100.00
2022-10-25T09:15:36.788Z,100.00
2022-10-25T09:18:15.818Z,100.00
2022-10-25T09:20:49.116Z,100.00
2022-10-25T09:23:25.327Z,100.00
2022-10-25T09:26:00.432Z,100.00
2022-10-25T09:28:39.171Z,100.00
2022-10-25T09:31:09.141Z,100.00
2022-10-25T09:33:37.402Z,100.00
2022-10-25T09:36:06.358Z,100.00
2022-10-25T09:38:40.088Z,100.00
2022-10-25T09:41:13.664Z,100.00
2022-10-25T09:43:46.215Z,100.00
2022-10-25T09:46:17.286Z,100.00
2022-10-25T09:48:51.737Z,100.00
2022-10-25T09:51:25.795Z,100.00
2022-10-25T09:53:56.357Z,100.00
2022-10-25T09:56:24.556Z,100.00
2022-10-25T09:58:52.826Z,99.60
2022-10-25T10:01:23.764Z,100.00
2022-10-25T10:03:54.833Z,97.22
2022-10-25T10:06:27.211Z,100.00
2022-10-25T10:09:01.704Z,98.78
2022-10-25T10:11:30.421Z,100.00
2022-10-25T10:14:04.967Z,95.98
2022-10-25T10:16:39.339Z,99.28
2022-10-25T10:19:16.490Z,100.00
2022-10-25T10:21:45.283Z,100.00
2022-10-25T10:24:18.857Z,95.44
2022-10-25T10:26:49.099Z,99.39
2022-10-25T10:29:21.134Z,100.00
2022-10-25T10:31:51.857Z,100.00
2022-10-25T10:34:28.087Z,100.00
2022-10-25T10:37:04.042Z,100.00
2022-10-25T10:39:33.662Z,93.01
2022-10-25T10:42:04.096Z,92.40
2022-10-25T10:44:34.517Z,91.03
2022-10-25T10:47:03.865Z,98.87
2022-10-25T10:49:36.141Z,90.76
2022-10-25T10:52:04.752Z,95.08
2022-10-25T10:54:35.819Z,81.31
2022-10-25T10:57:05.988Z,82.09
2022-10-25T10:59:37.636Z,85.24
2022-10-25T11:02:14.299Z,83.19
2022-10-25T11:04:49.980Z,81.13
2022-10-25T11:07:27.824Z,75.60
2022-10-25T11:10:34.809Z,77.82
2022-10-25T11:13:12.815Z,85.95
2022-10-25T11:16:01.446Z,66.54
2022-10-25T11:18:37.817Z,76.26
2022-10-25T11:21:12.655Z,74.77
2022-10-25T11:23:50.731Z,75.92
2022-10-25T11:26:24.296Z,69.37
2022-10-25T11:29:00.866Z,73.53
2022-10-25T11:31:35.556Z,68.89
2022-10-25T11:34:10.133Z,63.28
2022-10-25T11:36:57.494Z,62.85
2022-10-25T11:39:38.406Z,82.27
2022-10-25T11:42:20.722Z,67.59
2022-10-25T11:45:07.223Z,72.73
2022-10-25T11:47:43.435Z,76.61
2022-10-25T11:50:20.500Z,77.62
2022-10-25T11:53:04.156Z,65.79
2022-10-25T11:55:36.765Z,67.82
2022-10-25T11:58:16.619Z,76.28
2022-10-25T12:00:53.159Z,64.87
2022-10-25T12:03:32.193Z,63.59
2022-10-25T12:06:06.832Z,59.28
2022-10-25T12:08:41.441Z,66.97
2022-10-25T12:11:14.999Z,54.28
2022-10-25T12:13:48.214Z,55.87
2022-10-25T12:16:19.662Z,56.46
2022-10-25T12:18:49.709Z,59.96
2022-10-25T12:21:22.182Z,53.45
2022-10-25T12:23:52.813Z,53.44
2022-10-25T12:26:27.903Z,54.87
2022-10-25T12:28:58.170Z,52.68
2022-10-25T12:31:29.057Z,51.62
2022-10-25T12:34:02.283Z,45.62
2022-10-25T12:36:35.662Z,49.38
2022-10-25T12:39:08.261Z,48.39
2022-10-25T12:41:38.833Z,50.47
2022-10-25T12:44:16.606Z,51.84
2022-10-25T12:47:18.668Z,48.35
2022-10-25T12:49:59.193Z,51.06
2022-10-25T12:52:31.913Z,48.46
2022-10-25T12:55:08.541Z,52.43
2022-10-25T12:57:46.100Z,51.45
2022-10-25T13:00:18.331Z,48.14
2022-10-25T13:03:20.878Z,48.96
2022-10-25T13:05:59.961Z,51.88
2022-10-25T13:08:29.670Z,46.63
2022-10-25T13:10:59.541Z,48.33
2022-10-25T13:13:29.476Z,48.41
2022-10-25T13:15:59.752Z,50.41
2022-10-25T13:18:40.606Z,48.41
2022-10-25T13:21:10.346Z,50.17
2022-10-25T13:24:00.511Z,50.55
2022-10-25T13:26:32.021Z,46.67
2022-10-25T13:29:02.591Z,47.89
2022-10-25T13:31:49.190Z,47.07
2022-10-25T13:34:37.977Z,51.71
2022-10-25T13:37:11.339Z,48.34
2022-10-25T13:39:44.518Z,44.44
2022-10-25T13:42:24.319Z,46.28
2022-10-25T13:44:55.897Z,47.15
2022-10-25T13:47:32.872Z,46.46
2022-10-25T13:50:03.049Z,45.26
2022-10-25T13:52:33.443Z,44.59
2022-10-25T13:55:04.309Z,45.08
2022-10-25T13:57:51.085Z,41.80
2022-10-25T14:00:37.894Z,43.98
2022-10-25T14:06:24.800Z,45.43
2022-10-25T14:09:08.911Z,43.83
2022-10-25T14:11:40.913Z,46.36
2022-10-25T14:14:23.697Z,43.78
2022-10-25T14:17:10.531Z,44.65
2022-10-25T14:19:40.934Z,44.78
2022-10-25T14:22:14.432Z,42.48
2022-10-25T14:24:43.704Z,42.97
2022-10-25T14:27:29.309Z,41.33
2022-10-25T14:30:14.388Z,41.51
2022-10-25T14:32:50.582Z,42.46
2022-10-25T14:35:19.126Z,43.61
2022-10-25T14:37:48.709Z,44.25
2022-10-25T14:40:21.861Z,42.42
2022-10-25T14:42:50.545Z,44.18
2022-10-25T14:45:21.672Z,44.50
2022-10-25T14:47:49.888Z,43.58
2022-10-25T14:50:20.139Z,44.10
2022-10-25T14:52:51.140Z,43.74
2022-10-25T14:55:22.957Z,44.43
2022-10-25T14:57:51.321Z,46.48
2022-10-25T15:00:22.599Z,47.04
2022-10-25T15:02:55.283Z,47.82
2022-10-25T15:05:25.286Z,48.05
2022-10-25T15:07:57.996Z,46.39
2022-10-25T15:10:47.475Z,44.21
2022-10-25T15:13:17.867Z,45.55
2022-10-25T15:15:47.556Z,44.39
2022-10-25T15:18:35.015Z,44.20
2022-10-25T15:21:09.215Z,45.84
2022-10-25T15:23:39.538Z,45.97
2022-10-25T15:26:25.274Z,45.56
2022-10-25T15:28:55.489Z,45.54
2022-10-25T15:31:25.302Z,44.54
2022-10-25T15:33:58.111Z,45.97
2022-10-25T15:36:29.442Z,47.14
2022-10-25T15:39:11.624Z,48.55
2022-10-25T15:41:41.052Z,49.32
2022-10-25T15:44:09.357Z,48.17
2022-10-25T15:46:38.139Z,49.09
2022-10-25T15:49:08.591Z,48.56
2022-10-25T15:51:40.108Z,49.57
2022-10-25T15:54:14.663Z,49.63
2022-10-25T15:56:43.002Z,53.98
2022-10-25T15:59:11.455Z,52.54
2022-10-25T16:01:42.708Z,53.39
2022-10-25T16:04:15.060Z,54.16
2022-10-25T16:06:43.673Z,54.53
2022-10-25T16:09:13.260Z,56.54
2022-10-25T16:11:46.279Z,58.43
2022-10-25T16:14:19.977Z,58.90
2022-10-25T16:16:48.200Z,60.57
2022-10-25T16:19:17.885Z,61.01
2022-10-25T16:21:46.572Z,61.91
2022-10-25T16:24:16.124Z,65.06
2022-10-25T16:26:46.121Z,67.70
2022-10-25T16:29:15.979Z,70.46
2022-10-25T16:31:44.479Z,72.04
2022-10-25T16:34:15.391Z,76.69
2022-10-25T16:36:43.931Z,84.62
2022-10-25T16:39:12.607Z,87.17
2022-10-25T16:41:45.769Z,87.97
2022-10-25T16:44:16.249Z,91.15
2022-10-25T16:46:45.310Z,95.91
2022-10-25T16:49:13.822Z,96.07
2022-10-25T16:51:44.163Z,98.56
2022-10-25T16:54:12.936Z,97.52
2022-10-25T16:56:42.466Z,97.99
2022-10-25T16:59:10.657Z,100.00
2022-10-25T17:01:40.193Z,100.00
2022-10-25T17:04:10.823Z,100.00
2022-10-25T17:06:41.827Z,100.00
2022-10-25T17:09:10.728Z,100.00
2022-10-25T17:11:39.089Z,100.00
2022-10-25T17:14:09.611Z,100.00
2022-10-25T17:16:37.961Z,100.00
2022-10-25T17:19:06.191Z,100.00
2022-10-25T17:21:35.789Z,100.00
2022-10-25T17:24:04.509Z,100.00
2022-10-25T17:26:32.742Z,100.00
2022-10-25T17:29:01.131Z,100.00
2022-10-25T17:34:01.126Z,100.00
2022-10-25T17:36:31.703Z,100.00
2022-10-25T17:39:00.009Z,100.00
2022-10-25T17:41:28.204Z,100.00
2022-10-25T17:43:57.017Z,100.00
2022-10-25T17:46:26.835Z,100.00
2022-10-25T17:48:57.583Z,100.00
2022-10-25T17:51:25.920Z,100.00
2022-10-25T17:53:55.133Z,100.00
2022-10-25T17:56:25.359Z,100.00
2022-10-25T17:58:54.599Z,100.00
2022-10-25T18:01:24.649Z,100.00
2022-10-25T18:03:54.106Z,100.00
2022-10-25T18:06:25.670Z,100.00
2022-10-25T18:08:55.017Z,100.00
2022-10-25T18:11:24.470Z,100.00
2022-10-25T18:13:54.175Z,100.00
2022-10-25T18:16:25.894Z,100.00
2022-10-25T18:18:54.422Z,100.00
2022-10-25T18:21:24.170Z,100.00
2022-10-25T18:23:55.507Z,100.00
2022-10-25T18:26:25.013Z,100.00
2022-10-25T18:28:53.570Z,100.00
2022-10-25T18:31:22.490Z,100.00
2022-10-25T18:33:50.721Z,100.00
2022-10-25T18:36:21.707Z,100.00
2022-10-25T18:38:51.575Z,100.00
2022-10-25T18:41:21.894Z,100.00
2022-10-25T18:43:50.231Z,100.00
2022-10-25T18:46:18.983Z,100.00
2022-10-25T18:48:51.781Z,100.00
2022-10-25T18:51:20.983Z,100.00
2022-10-25T18:53:49.242Z,100.00
2022-10-25T18:56:21.251Z,100.00
2022-10-25T18:58:50.521Z,100.00
2022-10-25T19:01:22.608Z,100.00
2022-10-25T19:03:51.618Z,100.00
2022-10-25T19:06:20.385Z,100.00
2022-10-25T19:08:49.429Z,100.00
2022-10-25T19:11:19.197Z,100.00
2022-10-25T19:13:50.383Z,100.00
2022-10-25T19:16:19.687Z,100.00
2022-10-25T19:18:47.868Z,100.00
2022-10-25T19:21:18.367Z,100.00
2022-10-25T19:23:46.813Z,100.00
2022-10-25T19:26:16.963Z,100.00
2022-10-25T19:28:46.561Z,100.00
2022-10-25T19:31:15.957Z,100.00
2022-10-25T19:33:46.093Z,100.00
2022-10-25T19:36:14.336Z,100.00
2022-10-25T19:38:42.887Z,100.00
2022-10-25T19:41:14.691Z,100.00
2022-10-25T19:43:43.450Z,100.00
2022-10-25T19:46:13.939Z,100.00
2022-10-25T19:48:42.328Z,100.00
2022-10-25T19:51:11.907Z,100.00
2022-10-25T19:53:40.580Z,100.00
2022-10-25T19:56:10.438Z,100.00
2022-10-25T19:58:38.639Z,100.00
2022-10-25T20:01:09.230Z,100.00
2022-10-25T20:03:39.903Z,100.00
2022-10-25T20:06:10.169Z,100.00
2022-10-25T20:08:39.847Z,100.00
2022-10-25T20:11:09.329Z,100.00
2022-10-25T20:13:37.551Z,100.00
2022-10-25T20:16:06.435Z,100.00
2022-10-25T20:18:36.837Z,100.00
2022-10-25T20:21:08.410Z,100.00
2022-10-25T20:23:36.881Z,100.00
2022-10-25T20:26:13.116Z,100.00
2022-10-25T20:28:41.576Z,100.00
2022-10-25T20:31:10.212Z,100.00
2022-10-25T20:33:38.501Z,100.00
2022-10-25T20:36:09.900Z,100.00
2022-10-25T20:38:38.665Z,100.00
2022-10-25T20:41:08.936Z,100.00
2022-10-25T20:43:37.645Z,100.00
2022-10-25T20:46:06.766Z,100.00
2022-10-25T20:48:35.729Z,100.00
2022-10-25T20:51:07.607Z,100.00
2022-10-25T20:53:38.498Z,100.00
2022-10-25T20:56:07.328Z,100.00
2022-10-25T20:58:35.707Z,100.00
2022-10-25T21:01:04.161Z,100.00
2022-10-25T21:03:33.189Z,100.00
2022-10-25T21:06:04.436Z,100.00
2022-10-25T21:08:33.303Z,100.00
2022-10-25T21:11:04.125Z,100.00
2022-10-25T21:13:33.188Z,100.00
2022-10-25T21:16:06.476Z,100.00
2022-10-25T21:18:36.001Z,100.00
2022-10-25T21:21:06.250Z,100.00
2022-10-25T21:23:34.606Z,100.00
2022-10-25T21:26:05.363Z,100.00
2022-10-25T21:28:35.577Z,100.00
2022-10-25T21:31:04.785Z,100.00
2022-10-25T21:33:33.025Z,100.00
2022-10-25T21:36:05.898Z,100.00
2022-10-25T21:38:34.160Z,100.00
2022-10-25T21:41:11.584Z,100.00
2022-10-25T21:43:43.545Z,100.00
2022-10-25T21:46:12.278Z,100.00
2022-10-25T21:48:40.455Z,100.00
2022-10-25T21:51:09.216Z,100.00
2022-10-25T21:53:37.490Z,100.00
2022-10-25T21:56:07.046Z,100.00
2022-10-25T21:58:36.605Z,100.00
2022-10-25T22:01:08.274Z,100.00
2022-10-25T22:03:36.558Z,100.00
2022-10-25T22:06:06.613Z,100.00
2022-10-25T22:08:35.116Z,100.00
2022-10-25T22:11:05.687Z,100.00
2022-10-25T22:13:33.729Z,100.00
2022-10-25T22:16:05.568Z,100.00
2022-10-25T22:18:34.332Z,100.00
2022-10-25T22:21:05.016Z,100.00
2022-10-25T22:23:33.870Z,100.00
2022-10-25T22:26:06.965Z,100.00
2022-10-25T22:28:38.361Z,100.00
2022-10-25T22:31:11.726Z,100.00
2022-10-25T22:33:40.411Z,100.00
2022-10-25T22:36:10.802Z,100.00
2022-10-25T22:38:39.227Z,100.00
2022-10-25T22:41:10.376Z,100.00
2022-10-25T22:43:39.719Z,100.00
2022-10-25T22:46:11.352Z,100.00
2022-10-25T22:48:41.084Z,100.00
2022-10-25T22:51:10.192Z,100.00
2022-10-25T22:56:26.848Z,100.00
2022-10-25T22:58:56.520Z,100.00
2022-10-25T23:01:27.311Z,100.00
2022-10-25T23:03:56.841Z,100.00
2022-10-25T23:06:26.406Z,100.00
2022-10-25T23:08:55.189Z,100.00
2022-10-25T23:11:25.255Z,100.00
2022-10-25T23:13:53.755Z,100.00
2022-10-25T23:16:22.012Z,100.00
2022-10-25T23:18:51.976Z,100.00
2022-10-25T23:21:23.346Z,100.00
2022-10-25T23:23:52.313Z,100.00
2022-10-25T23:26:22.157Z,100.00
2022-10-25T23:28:50.524Z,100.00
2022-10-25T23:31:19.156Z,100.00
2022-10-25T23:33:53.060Z,100.00
2022-10-25T23:36:22.657Z,100.00
2022-10-25T23:38:51.808Z,100.00
2022-10-25T23:41:20.674Z,100.00
2022-10-25T23:43:49.186Z,100.00
2022-10-25T23:46:17.464Z,100.00
2022-10-25T23:48:45.794Z,100.00
2022-10-25T23:51:17.372Z,100.00
2022-10-25T23:53:46.528Z,100.00
2022-10-25T23:56:15.190Z,100.00
2022-10-25T23:58:43.642Z,100.00
